createdAt,value
2022-11-19T00:02:08.762Z,73.95
2022-11-19T00:04:37.121Z,74.10
2022-11-19T00:07:06.632Z,74.17
2022-11-19T00:09:34.616Z,74.03
2022-11-19T00:12:19.864Z,73.79
2022-11-19T00:14:48.063Z,74.13
2022-11-19T00:17:16.672Z,73.88
2022-11-19T00:19:44.825Z,73.95
2022-11-19T00:22:14.308Z,74.06
2022-11-19T00:24:42.249Z,74.22
2022-11-19T00:27:13.126Z,74.16
2022-11-19T00:29:41.491Z,74.21
2022-11-19T00:32:10.340Z,74.21
2022-11-19T00:34:38.720Z,74.22
2022-11-19T00:37:06.807Z,73.81
2022-11-19T00:39:36.518Z,74.03
2022-11-19T00:42:05.569Z,73.77
2022-11-19T00:44:37.443Z,73.72
2022-11-19T00:47:06.506Z,73.90
2022-11-19T00:49:36.045Z,73.52
2022-11-19T00:52:05.132Z,73.86
2022-11-19T00:54:36.272Z,73.94
2022-11-19T00:57:06.253Z,73.86
2022-11-19T00:59:34.605Z,74.04
2022-11-19T01:02:02.586Z,73.95
2022-11-19T01:04:30.461Z,73.95
2022-11-19T01:06:59.430Z,74.04
2022-11-19T01:09:30.867Z,73.96
2022-11-19T01:12:06.204Z,73.58
2022-11-19T01:14:36.079Z,73.52
2022-11-19T01:17:10.699Z,73.78
2022-11-19T01:19:40.564Z,73.75
2022-11-19T01:22:09.999Z,73.89
2022-11-19T01:24:38.771Z,73.74
2022-11-19T01:27:08.787Z,74.29
2022-11-19T01:29:40.324Z,73.99
2022-11-19T01:32:11.763Z,73.63
2022-11-19T01:34:43.592Z,73.72
2022-11-19T01:37:15.680Z,73.51
2022-11-19T01:39:47.562Z,73.99
2022-11-19T01:42:48.824Z,74.04
2022-11-19T01:45:32.264Z,73.90
2022-11-19T01:48:17.570Z,73.73
2022-11-19T01:50:51.280Z,73.83
2022-11-19T01:53:20.926Z,73.61
2022-11-19T01:55:50.796Z,73.47
2022-11-19T01:58:24.000Z,73.72
2022-11-19T02:00:55.876Z,73.80
2022-11-19T02:03:25.220Z,73.86
2022-11-19T02:05:54.648Z,73.67
2022-11-19T02:08:38.054Z,73.81
2022-11-19T02:11:25.732Z,73.82
2022-11-19T02:14:04.513Z,73.89
2022-11-19T02:16:40.919Z,73.92
2022-11-19T02:19:25.064Z,73.96
2022-11-19T02:22:09.883Z,73.88
2022-11-19T02:24:48.666Z,73.61
2022-11-19T02:28:02.258Z,73.61
2022-11-19T02:30:36.219Z,73.51
2022-11-19T02:33:08.851Z,74.03
2022-11-19T02:35:46.007Z,73.70
2022-11-19T02:38:23.167Z,73.82
2022-11-19T02:40:57.090Z,73.26
2022-11-19T02:43:31.825Z,73.56
2022-11-19T02:46:06.188Z,73.40
2022-11-19T02:48:38.183Z,73.30
2022-11-19T02:51:07.719Z,73.60
2022-11-19T02:53:36.186Z,72.83
2022-11-19T02:56:13.760Z,72.25
2022-11-19T02:59:05.744Z,72.44
2022-11-19T03:01:57.642Z,72.12
2022-11-19T03:04:33.326Z,72.67
2022-11-19T03:07:06.188Z,72.65
2022-11-19T03:09:37.706Z,72.28
2022-11-19T03:12:12.062Z,72.03
2022-11-19T03:15:06.586Z,72.25
2022-11-19T03:17:52.061Z,72.46
2022-11-19T03:20:24.236Z,71.97
2022-11-19T03:22:59.367Z,72.55
2022-11-19T03:25:30.206Z,72.16
2022-11-19T03:28:02.393Z,72.15
2022-11-19T03:30:31.624Z,72.27
2022-11-19T03:33:05.521Z,72.18
2022-11-19T03:35:39.048Z,72.24
2022-11-19T03:38:11.858Z,72.79
2022-11-19T03:40:42.950Z,72.46
2022-11-19T03:43:14.485Z,72.88
2022-11-19T03:45:45.197Z,72.55
2022-11-19T03:48:16.710Z,72.17
2022-11-19T03:50:50.154Z,72.61
2022-11-19T03:53:22.086Z,72.13
2022-11-19T03:55:55.107Z,72.42
2022-11-19T03:58:25.430Z,72.51
2022-11-19T04:00:53.695Z,72.33
2022-11-19T04:03:23.258Z,72.45
2022-11-19T04:05:51.120Z,72.53
2022-11-19T04:08:19.056Z,72.52
2022-11-19T04:10:46.907Z,72.71
2022-11-19T04:13:14.816Z,72.58
2022-11-19T04:15:42.666Z,72.44
2022-11-19T04:18:10.576Z,72.49
2022-11-19T04:20:39.885Z,71.75
2022-11-19T04:23:07.710Z,72.45
2022-11-19T04:25:35.614Z,72.35
2022-11-19T04:28:03.508Z,72.44
2022-11-19T04:30:31.356Z,72.28
2022-11-19T04:32:59.336Z,71.96
2022-11-19T04:35:27.303Z,72.42
2022-11-19T04:37:56.580Z,72.60
2022-11-19T04:40:24.396Z,72.59
2022-11-19T04:42:52.222Z,72.45
2022-11-19T04:45:20.111Z,72.19
2022-11-19T04:47:47.945Z,72.28
2022-11-19T04:50:15.894Z,72.29
2022-11-19T04:52:43.818Z,72.23
2022-11-19T04:55:13.037Z,72.40
2022-11-19T04:57:41.011Z,72.48
2022-11-19T05:00:10.101Z,72.40
2022-11-19T05:02:37.976Z,72.72
2022-11-19T05:05:06.583Z,72.64
2022-11-19T05:07:34.624Z,72.57
2022-11-19T05:10:02.745Z,72.67
2022-11-19T05:12:32.155Z,72.19
2022-11-19T05:15:00.006Z,72.58
2022-11-19T05:17:27.887Z,72.62
2022-11-19T05:19:55.811Z,72.57
2022-11-19T05:22:23.716Z,72.76
2022-11-19T05:24:51.739Z,72.71
2022-11-19T05:27:19.772Z,73.02
2022-11-19T05:29:48.942Z,72.99
2022-11-19T05:32:16.837Z,72.92
2022-11-19T05:34:44.743Z,73.39
2022-11-19T05:37:12.653Z,73.24
2022-11-19T05:39:42.127Z,73.34
2022-11-19T05:42:10.132Z,73.09
2022-11-19T05:44:38.047Z,73.13
2022-11-19T05:47:07.707Z,73.18
2022-11-19T05:49:35.547Z,73.02
2022-11-19T05:52:03.470Z,73.02
2022-11-19T05:54:31.596Z,73.32
2022-11-19T05:56:59.509Z,73.37
2022-11-19T05:59:27.345Z,73.13
2022-11-19T06:01:55.230Z,73.21
2022-11-19T06:04:24.637Z,73.09
2022-11-19T06:06:52.779Z,73.41
2022-11-19T06:09:20.973Z,72.99
2022-11-19T06:11:50.771Z,72.58
2022-11-19T06:14:22.078Z,72.64
2022-11-19T06:16:51.286Z,72.86
2022-11-19T06:19:20.234Z,72.42
2022-11-19T06:21:51.715Z,72.46
2022-11-19T06:24:20.567Z,72.56
2022-11-19T06:26:48.494Z,72.42
2022-11-19T06:29:17.748Z,72.86
2022-11-19T06:31:46.887Z,72.32
2022-11-19T06:34:15.268Z,72.57
2022-11-19T06:36:49.123Z,72.59
2022-11-19T06:39:20.277Z,72.83
2022-11-19T06:41:49.730Z,72.57
2022-11-19T06:44:18.010Z,72.60
2022-11-19T06:46:46.331Z,72.59
2022-11-19T06:49:19.656Z,72.68
2022-11-19T06:51:48.390Z,72.95
2022-11-19T06:54:16.240Z,72.75
2022-11-19T06:56:45.570Z,73.03
2022-11-19T06:59:13.620Z,72.79
2022-11-19T07:01:41.472Z,73.28
2022-11-19T07:04:09.373Z,72.70
2022-11-19T07:06:37.315Z,72.97
2022-11-19T07:09:05.147Z,73.12
2022-11-19T07:11:32.944Z,72.64
2022-11-19T07:14:03.858Z,73.24
2022-11-19T07:16:34.323Z,72.97
2022-11-19T07:19:04.904Z,73.24
2022-11-19T07:21:33.420Z,73.02
2022-11-19T07:24:03.350Z,73.03
2022-11-19T07:26:32.317Z,73.14
2022-11-19T07:29:04.992Z,73.13
2022-11-19T07:31:33.751Z,73.10
2022-11-19T07:34:02.254Z,72.92
2022-11-19T07:36:30.178Z,72.77
2022-11-19T07:38:58.990Z,72.73
2022-11-19T07:41:44.683Z,72.87
2022-11-19T07:44:13.927Z,72.87
2022-11-19T07:46:42.386Z,72.97
2022-11-19T07:49:10.331Z,72.36
2022-11-19T07:51:38.449Z,72.77
2022-11-19T07:54:06.732Z,72.80
2022-11-19T07:56:34.551Z,72.53
2022-11-19T07:59:02.628Z,72.50
2022-11-19T08:01:32.030Z,72.66
2022-11-19T08:04:01.020Z,72.46
2022-11-19T08:06:31.006Z,72.96
2022-11-19T08:08:58.847Z,72.47
2022-11-19T08:11:26.717Z,72.51
2022-11-19T08:13:54.720Z,72.44
2022-11-19T08:16:40.604Z,72.43
2022-11-19T08:19:11.814Z,72.44
2022-11-19T08:21:43.205Z,72.53
2022-11-19T08:24:12.007Z,72.35
2022-11-19T08:26:40.742Z,72.17
2022-11-19T08:29:15.713Z,72.23
2022-11-19T08:31:45.825Z,71.96
2022-11-19T08:34:15.732Z,71.94
2022-11-19T08:39:27.590Z,71.49
2022-11-19T08:42:17.369Z,71.58
2022-11-19T08:44:45.358Z,71.32
2022-11-19T08:47:13.343Z,71.56
2022-11-19T08:49:42.601Z,71.53
2022-11-19T08:52:10.511Z,71.51
2022-11-19T08:54:38.332Z,71.75
2022-11-19T08:57:06.291Z,71.53
2022-11-19T08:59:34.133Z,71.29
2022-11-19T09:02:01.997Z,70.29
2022-11-19T09:04:35.122Z,70.79
2022-11-19T09:07:07.226Z,70.42
2022-11-19T09:09:35.171Z,70.35
2022-11-19T09:12:02.954Z,70.29
2022-11-19T09:14:37.947Z,70.36
2022-11-19T09:17:09.898Z,70.46
2022-11-19T09:19:40.072Z,70.17
2022-11-19T09:22:09.549Z,70.10
2022-11-19T09:24:37.683Z,70.06
2022-11-19T09:27:05.623Z,69.62
2022-11-19T09:29:33.521Z,69.83
2022-11-19T09:32:01.331Z,69.74
2022-11-19T09:34:29.396Z,69.53
2022-11-19T09:36:58.441Z,69.83
2022-11-19T09:39:27.715Z,69.02
2022-11-19T09:42:02.560Z,69.48
2022-11-19T09:45:06.097Z,69.56
2022-11-19T09:47:49.863Z,68.55
2022-11-19T09:50:20.760Z,68.32
2022-11-19T09:52:53.000Z,68.07
2022-11-19T09:55:28.381Z,67.90
2022-11-19T09:57:58.546Z,67.84
2022-11-19T10:00:30.306Z,68.03
2022-11-19T10:03:00.020Z,67.62
2022-11-19T10:05:34.867Z,67.90
2022-11-19T10:08:13.964Z,68.35
2022-11-19T10:10:48.437Z,68.50
2022-11-19T10:13:32.309Z,68.88
2022-11-19T10:16:26.255Z,69.17
2022-11-19T10:19:04.465Z,69.25
2022-11-19T10:21:42.080Z,68.38
2022-11-19T10:24:18.128Z,67.90
2022-11-19T10:26:56.430Z,67.34
2022-11-19T10:29:29.057Z,68.09
2022-11-19T10:32:20.124Z,67.86
2022-11-19T10:34:54.598Z,67.70
2022-11-19T10:37:25.312Z,67.99
2022-11-19T10:39:59.073Z,67.93
2022-11-19T10:42:33.297Z,68.31
2022-11-19T10:45:06.311Z,68.32
2022-11-19T10:47:42.069Z,68.35
2022-11-19T10:50:17.436Z,68.31
2022-11-19T10:52:49.553Z,68.27
2022-11-19T10:55:24.223Z,68.17
2022-11-19T10:58:06.730Z,68.19
2022-11-19T11:00:35.737Z,68.13
2022-11-19T11:03:04.197Z,68.27
2022-11-19T11:05:32.638Z,68.12
2022-11-19T11:08:02.173Z,68.55
2022-11-19T11:10:44.192Z,68.11
2022-11-19T11:13:58.823Z,68.09
2022-11-19T11:16:40.154Z,68.06
2022-11-19T11:19:14.730Z,68.49
2022-11-19T11:21:44.030Z,67.88
2022-11-19T11:24:13.173Z,68.20
2022-11-19T11:26:41.455Z,67.87
2022-11-19T12:06:17.931Z,66.68
2022-11-19T12:08:55.520Z,67.39
2022-11-19T12:11:50.541Z,67.32
2022-11-19T12:14:23.204Z,67.44
2022-11-19T12:17:16.511Z,66.81
2022-11-19T12:20:07.335Z,66.19
2022-11-19T12:22:49.260Z,66.07
2022-11-19T12:25:27.071Z,65.90
2022-11-19T12:28:20.199Z,65.96
2022-11-19T12:30:59.860Z,65.93
2022-11-19T12:33:49.743Z,65.58
2022-11-19T12:36:26.916Z,65.89
2022-11-19T12:39:03.924Z,65.29
2022-11-19T12:41:57.845Z,65.52
2022-11-19T12:44:38.603Z,66.17
2022-11-19T12:47:18.484Z,65.78
2022-11-19T12:50:13.809Z,65.24
2022-11-19T12:53:15.805Z,65.59
2022-11-19T12:55:54.714Z,65.40
2022-11-19T12:58:31.563Z,65.92
2022-11-19T13:01:02.314Z,65.69
2022-11-19T13:03:45.961Z,65.86
2022-11-19T13:06:20.890Z,66.22
2022-11-19T13:08:53.164Z,66.05
2022-11-19T13:11:29.319Z,65.87
2022-11-19T13:14:02.698Z,65.58
2022-11-19T13:16:33.824Z,65.49
2022-11-19T13:19:15.922Z,65.24
2022-11-19T13:21:53.678Z,65.53
2022-11-19T13:24:32.561Z,65.25
2022-11-19T13:27:04.852Z,65.86
2022-11-19T13:29:42.674Z,65.36
2022-11-19T13:32:18.948Z,65.53
2022-11-19T13:35:00.548Z,65.41
2022-11-19T13:37:40.588Z,65.48
2022-11-19T13:40:20.610Z,65.40
2022-11-19T13:43:31.014Z,65.44
2022-11-19T13:46:07.373Z,65.30
2022-11-19T13:48:41.220Z,65.70
2022-11-19T13:51:15.719Z,65.61
2022-11-19T13:53:46.444Z,65.68
2022-11-19T13:56:17.476Z,65.31
2022-11-19T13:58:50.730Z,65.84
2022-11-19T14:01:41.585Z,66.21
2022-11-19T14:04:31.547Z,66.06
2022-11-19T14:07:18.431Z,65.55
2022-11-19T14:09:58.331Z,65.64
2022-11-19T14:12:45.886Z,66.01
2022-11-19T14:15:48.940Z,65.97
2022-11-19T14:18:43.545Z,65.99
2022-11-19T14:22:01.343Z,65.83
2022-11-19T14:25:15.573Z,65.97
2022-11-19T14:27:44.501Z,65.91
2022-11-19T14:30:16.775Z,66.00
2022-11-19T14:32:50.210Z,66.35
2022-11-19T14:35:42.816Z,66.30
2022-11-19T14:38:40.567Z,65.78
2022-11-19T14:41:30.991Z,66.31
2022-11-19T14:44:16.112Z,66.55
2022-11-19T14:46:50.705Z,66.36
2022-11-19T14:49:28.736Z,66.32
2022-11-19T14:52:03.826Z,66.75
2022-11-19T14:54:43.422Z,66.63
2022-11-19T14:57:28.781Z,66.95
2022-11-19T15:00:01.478Z,66.37
2022-11-19T15:02:37.095Z,66.49
2022-11-19T15:05:17.657Z,66.29
2022-11-19T15:07:56.467Z,65.81
2022-11-19T15:10:35.365Z,66.19
2022-11-19T15:13:18.599Z,66.42
2022-11-19T15:15:48.658Z,66.36
2022-11-19T15:18:51.244Z,66.20
2022-11-19T15:21:57.946Z,66.29
2022-11-19T15:24:40.214Z,66.12
2022-11-19T15:27:17.648Z,66.26
2022-11-19T15:30:05.426Z,66.39
2022-11-19T15:32:59.449Z,66.20
2022-11-19T15:36:03.941Z,66.20
2022-11-19T15:38:39.717Z,66.07
2022-11-19T15:41:12.458Z,66.46
2022-11-19T15:43:44.722Z,66.58
2022-11-19T15:46:16.123Z,66.10
2022-11-19T15:48:58.860Z,66.31
2022-11-19T15:51:27.222Z,66.23
2022-11-19T15:54:00.970Z,66.68
2022-11-19T15:56:32.867Z,66.04
2022-11-19T15:59:03.277Z,66.34
2022-11-19T16:01:34.301Z,66.74
2022-11-19T16:04:07.493Z,65.86
2022-11-19T16:06:37.796Z,66.36
2022-11-19T16:09:08.656Z,66.68
2022-11-19T16:11:57.106Z,66.64
2022-11-19T16:14:44.398Z,66.71
2022-11-19T16:17:41.820Z,66.39
2022-11-19T16:20:21.296Z,66.56
2022-11-19T16:22:54.896Z,66.58
2022-11-19T16:25:32.878Z,66.49
2022-11-19T16:28:03.607Z,66.74
2022-11-19T16:30:41.380Z,66.86
2022-11-19T16:33:14.725Z,66.66
2022-11-19T16:35:42.700Z,66.57
2022-11-19T16:38:15.537Z,66.90
2022-11-19T16:41:03.777Z,66.93
2022-11-19T16:43:31.784Z,66.99
2022-11-19T16:46:01.542Z,67.17
2022-11-19T16:48:59.952Z,67.10
2022-11-19T16:51:35.512Z,66.96
2022-11-19T16:54:04.577Z,67.14
2022-11-19T16:56:38.137Z,67.33
2022-11-19T16:59:07.534Z,67.08
2022-11-19T17:01:35.924Z,66.96
2022-11-19T17:04:07.982Z,67.08
2022-11-19T17:06:38.452Z,66.82
2022-11-19T17:09:07.820Z,66.87
2022-11-19T17:12:15.483Z,67.03
2022-11-19T17:14:55.593Z,66.85
2022-11-19T17:17:41.437Z,66.96
2022-11-19T17:20:49.964Z,66.97
2022-11-19T17:23:20.115Z,66.72
2022-11-19T17:25:50.535Z,66.92
2022-11-19T17:28:22.709Z,66.57
2022-11-19T17:30:51.043Z,66.41
2022-11-19T17:33:22.832Z,66.79
2022-11-19T17:35:51.830Z,66.65
2022-11-19T17:38:23.751Z,66.14
2022-11-19T17:40:53.442Z,66.16
2022-11-19T17:43:42.838Z,66.46
2022-11-19T17:46:11.302Z,66.46
2022-11-19T17:48:41.629Z,66.09
2022-11-19T17:51:12.723Z,66.27
2022-11-19T17:53:40.884Z,66.08
2022-11-19T17:56:18.142Z,65.89
2022-11-19T17:58:47.242Z,66.13
2022-11-19T18:01:15.559Z,65.99
2022-11-19T18:03:43.658Z,65.87
2022-11-19T18:06:13.012Z,66.12
2022-11-19T18:08:42.095Z,66.08
2022-11-19T18:11:12.220Z,66.09
2022-11-19T18:13:42.189Z,65.87
2022-11-19T18:16:14.678Z,66.05
2022-11-19T18:18:42.626Z,66.18
2022-11-19T18:21:12.926Z,66.27
2022-11-19T18:23:41.174Z,66.43
2022-11-19T18:26:10.726Z,66.11
2022-11-19T18:28:43.812Z,65.74
2022-11-19T18:31:17.626Z,65.92
2022-11-19T18:33:47.742Z,66.03
2022-11-19T18:36:18.684Z,66.11
2022-11-19T18:38:47.432Z,66.04
2022-11-19T18:41:18.872Z,66.10
2022-11-19T18:44:04.482Z,65.98
2022-11-19T18:46:34.589Z,66.09
2022-11-19T18:49:02.787Z,66.10
2022-11-19T18:51:32.559Z,66.51
2022-11-19T18:54:01.011Z,66.26
2022-11-19T18:56:28.908Z,66.16
2022-11-19T18:59:00.420Z,66.24
2022-11-19T19:01:33.904Z,65.84
2022-11-19T19:04:02.232Z,66.02
2022-11-19T19:06:30.089Z,66.27
2022-11-19T19:08:58.154Z,66.02
2022-11-19T19:11:43.697Z,66.29
2022-11-19T19:14:11.496Z,66.13
2022-11-19T19:16:42.551Z,66.33
2022-11-19T19:19:11.183Z,66.31
2022-11-19T19:21:39.007Z,66.60
2022-11-19T19:24:07.469Z,66.79
2022-11-19T19:26:35.363Z,66.89
2022-11-19T19:29:04.479Z,66.73
2022-11-19T19:31:33.465Z,66.57
2022-11-19T19:34:03.228Z,66.85
2022-11-19T19:36:31.939Z,67.26
2022-11-19T19:39:00.258Z,66.73
2022-11-19T19:41:29.287Z,66.90
2022-11-19T19:43:58.499Z,67.14
2022-11-19T19:46:26.319Z,67.28
2022-11-19T19:48:55.933Z,67.37
2022-11-19T19:51:27.748Z,67.01
2022-11-19T19:53:56.156Z,67.07
2022-11-19T19:56:25.506Z,67.06
2022-11-19T19:58:53.925Z,67.07
2022-11-19T20:01:24.305Z,67.09
2022-11-19T20:03:54.877Z,67.49
2022-11-19T20:06:27.053Z,67.46
2022-11-19T20:08:55.299Z,66.94
2022-11-19T20:11:25.896Z,67.09
2022-11-19T20:13:55.293Z,67.13
2022-11-19T20:16:25.383Z,66.92
2022-11-19T20:18:54.496Z,67.58
2022-11-19T20:21:26.849Z,67.78
2022-11-19T20:23:55.372Z,67.12
2022-11-19T20:26:26.432Z,67.36
2022-11-19T20:28:57.259Z,67.33
2022-11-19T20:31:25.932Z,67.04
2022-11-19T20:33:56.294Z,67.23
2022-11-19T20:36:27.361Z,66.94
2022-11-19T20:38:57.385Z,67.04
2022-11-19T20:41:45.737Z,67.28
2022-11-19T20:44:21.488Z,67.38
2022-11-19T20:46:51.941Z,67.04
2022-11-19T20:49:21.726Z,67.20
2022-11-19T20:51:51.410Z,67.52
2022-11-19T20:54:21.392Z,67.23
2022-11-19T20:56:49.802Z,66.69
2022-11-19T20:59:21.186Z,66.75
2022-11-19T21:01:51.554Z,66.47
2022-11-19T21:04:21.265Z,66.75
2022-11-19T21:06:49.728Z,66.66
2022-11-19T21:09:20.304Z,66.37
2022-11-19T21:11:48.657Z,66.40
2022-11-19T21:14:16.460Z,66.35
2022-11-19T21:16:44.370Z,66.08
2022-11-19T21:19:13.454Z,65.57
2022-11-19T21:21:41.649Z,65.75
2022-11-19T21:24:09.712Z,65.51
2022-11-19T21:26:38.994Z,65.60
2022-11-19T21:34:06.837Z,65.25
2022-11-19T21:41:18.974Z,65.55
2022-11-19T21:45:13.306Z,65.26
2022-11-19T21:48:15.632Z,65.24
2022-11-19T22:20:15.419Z,65.48
2022-11-19T22:47:51.576Z,64.51
2022-11-19T22:50:19.539Z,64.53
2022-11-19T22:52:47.404Z,64.34
2022-11-19T22:55:15.447Z,64.70
2022-11-19T22:57:43.402Z,64.84
2022-11-19T23:00:16.168Z,64.64
2022-11-19T23:02:47.521Z,64.00
2022-11-19T23:05:16.114Z,64.22
2022-11-19T23:07:44.012Z,64.06
2022-11-19T23:10:12.364Z,63.74
2022-11-19T23:16:24.177Z,64.20
2022-11-19T23:18:55.304Z,64.44
2022-11-19T23:21:56.732Z,63.90
2022-11-19T23:27:40.650Z,63.51
2022-11-19T23:30:25.756Z,63.59
2022-11-19T23:33:10.713Z,63.43
2022-11-19T23:35:40.993Z,63.79
2022-11-19T23:38:09.238Z,63.79
2022-11-19T23:40:37.279Z,63.58
2022-11-19T23:43:05.305Z,63.09
2022-11-19T23:45:36.693Z,62.88
2022-11-19T23:48:05.637Z,63.41
2022-11-19T23:50:34.315Z,62.73
2022-11-19T23:53:03.691Z,63.13
2022-11-19T23:55:31.760Z,63.04
2022-11-19T23:57:59.851Z,63.22
